sensor_id;sensor_type;location;lat;lon;timestamp;P1;durP1;ratioP1;P2;durP2;ratioP2
65567;SDS011;52211;50.154;8.682;2023-02-18T00:01:22;2.53;;;2.33;;
65567;SDS011;52211;50.154;8.682;2023-02-18T00:03:52;2.53;;;2.33;;
65567;SDS011;52211;50.154;8.682;2023-02-18T00:06:32;2.90;;;2.60;;
65567;SDS011;52211;50.154;8.682;2023-02-18T00:09:04;3.00;;;2.53;;
65567;SDS011;52211;50.154;8.682;2023-02-18T00:11:39;3.10;;;2.80;;
65567;SDS011;52211;50.154;8.682;2023-02-18T00:14:10;3.20;;;2.70;;
65567;SDS011;52211;50.154;8.682;2023-02-18T00:16:43;3.50;;;3.20;;
65567;SDS011;52211;50.154;8.682;2023-02-18T00:19:18;3.07;;;2.87;;
65567;SDS011;52211;50.154;8.682;2023-02-18T00:21:51;4.90;;;3.40;;
65567;SDS011;52211;50.154;8.682;2023-02-18T00:24:20;3.40;;;3.10;;
65567;SDS011;52211;50.154;8.682;2023-02-18T00:26:50;3.57;;;3.10;;
65567;SDS011;52211;50.154;8.682;2023-02-18T00:29:18;2.90;;;2.70;;
65567;SDS011;52211;50.154;8.682;2023-02-18T00:31:46;2.77;;;2.57;;
65567;SDS011;52211;50.154;8.682;2023-02-18T00:34:13;3.00;;;2.73;;
65567;SDS011;52211;50.154;8.682;2023-02-18T00:36:45;2.57;;;2.37;;
65567;SDS011;52211;50.154;8.682;2023-02-18T00:39:12;2.30;;;2.20;;
65567;SDS011;52211;50.154;8.682;2023-02-18T00:41:42;3.23;;;2.00;;
65567;SDS011;52211;50.154;8.682;2023-02-18T00:44:10;1.43;;;1.33;;
65567;SDS011;52211;50.154;8.682;2023-02-18T00:46:38;1.53;;;1.43;;
65567;SDS011;52211;50.154;8.682;2023-02-18T00:49:08;1.17;;;1.10;;
65567;SDS011;52211;50.154;8.682;2023-02-18T00:51:37;1.40;;;1.07;;
65567;SDS011;52211;50.154;8.682;2023-02-18T00:54:06;1.43;;;1.33;;
65567;SDS011;52211;50.154;8.682;2023-02-18T00:56:36;1.43;;;1.33;;
65567;SDS011;52211;50.154;8.682;2023-02-18T00:59:05;1.43;;;1.33;;
65567;SDS011;52211;50.154;8.682;2023-02-18T01:01:32;1.60;;;1.50;;
65567;SDS011;52211;50.154;8.682;2023-02-18T01:04:06;1.70;;;1.60;;
65567;SDS011;52211;50.154;8.682;2023-02-18T01:06:33;1.90;;;1.80;;
65567;SDS011;52211;50.154;8.682;2023-02-18T01:09:05;2.10;;;2.00;;
65567;SDS011;52211;50.154;8.682;2023-02-18T01:11:32;1.70;;;1.60;;
65567;SDS011;52211;50.154;8.682;2023-02-18T01:14:04;1.70;;;1.60;;
65567;SDS011;52211;50.154;8.682;2023-02-18T01:16:36;1.10;;;1.10;;
65567;SDS011;52211;50.154;8.682;2023-02-18T01:19:06;1.60;;;1.50;;
65567;SDS011;52211;50.154;8.682;2023-02-18T01:21:39;2.00;;;1.90;;
65567;SDS011;52211;50.154;8.682;2023-02-18T01:24:13;1.70;;;1.60;;
65567;SDS011;52211;50.154;8.682;2023-02-18T01:26:44;1.80;;;1.70;;
65567;SDS011;52211;50.154;8.682;2023-02-18T01:29:19;1.60;;;1.50;;
65567;SDS011;52211;50.154;8.682;2023-02-18T01:31:49;2.63;;;1.70;;
65567;SDS011;52211;50.154;8.682;2023-02-18T01:34:18;3.60;;;2.10;;
65567;SDS011;52211;50.154;8.682;2023-02-18T01:36:45;2.17;;;1.97;;
65567;SDS011;52211;50.154;8.682;2023-02-18T01:39:17;1.90;;;1.80;;
65567;SDS011;52211;50.154;8.682;2023-02-18T01:41:44;1.50;;;1.40;;
65567;SDS011;52211;50.154;8.682;2023-02-18T01:44:15;1.10;;;1.00;;
65567;SDS011;52211;50.154;8.682;2023-02-18T01:46:48;1.67;;;0.93;;
65567;SDS011;52211;50.154;8.682;2023-02-18T01:49:17;1.37;;;1.27;;
65567;SDS011;52211;50.154;8.682;2023-02-18T01:52:00;1.13;;;1.10;;
65567;SDS011;52211;50.154;8.682;2023-02-18T01:54:32;0.90;;;0.90;;
65567;SDS011;52211;50.154;8.682;2023-02-18T01:57:35;1.80;;;1.23;;
65567;SDS011;52211;50.154;8.682;2023-02-18T02:02:45;1.40;;;1.30;;
65567;SDS011;52211;50.154;8.682;2023-02-18T02:05:14;1.00;;;1.00;;
65567;SDS011;52211;50.154;8.682;2023-02-18T02:07:50;1.57;;;1.47;;
65567;SDS011;52211;50.154;8.682;2023-02-18T02:10:20;1.20;;;1.20;;
65567;SDS011;52211;50.154;8.682;2023-02-18T02:37:57;1.17;;;1.10;;
65567;SDS011;52211;50.154;8.682;2023-02-18T02:46:22;1.47;;;1.37;;
65567;SDS011;52211;50.154;8.682;2023-02-18T02:49:19;0.83;;;0.83;;
65567;SDS011;52211;50.154;8.682;2023-02-18T02:54:42;1.20;;;1.10;;
65567;SDS011;52211;50.154;8.682;2023-02-18T02:59:54;1.03;;;1.03;;
65567;SDS011;52211;50.154;8.682;2023-02-18T03:11:34;1.43;;;1.30;;
65567;SDS011;52211;50.154;8.682;2023-02-18T03:14:26;1.30;;;1.20;;
65567;SDS011;52211;50.154;8.682;2023-02-18T03:17:53;1.13;;;1.03;;
65567;SDS011;52211;50.154;8.682;2023-02-18T03:20:27;0.90;;;0.90;;
65567;SDS011;52211;50.154;8.682;2023-02-18T03:23:08;1.43;;;0.90;;
65567;SDS011;52211;50.154;8.682;2023-02-18T03:25:43;1.40;;;1.30;;
65567;SDS011;52211;50.154;8.682;2023-02-18T03:28:13;0.90;;;0.90;;
65567;SDS011;52211;50.154;8.682;2023-02-18T03:30:49;0.80;;;0.80;;
65567;SDS011;52211;50.154;8.682;2023-02-18T03:33:28;0.80;;;0.80;;
65567;SDS011;52211;50.154;8.682;2023-02-18T03:36:06;0.90;;;0.90;;
65567;SDS011;52211;50.154;8.682;2023-02-18T03:38:37;0.80;;;0.80;;
65567;SDS011;52211;50.154;8.682;2023-02-18T03:41:23;0.80;;;0.80;;
65567;SDS011;52211;50.154;8.682;2023-02-18T03:43:54;1.10;;;1.07;;
65567;SDS011;52211;50.154;8.682;2023-02-18T03:46:31;0.80;;;0.80;;
65567;SDS011;52211;50.154;8.682;2023-02-18T03:49:01;0.93;;;0.80;;
65567;SDS011;52211;50.154;8.682;2023-02-18T03:51:31;0.83;;;0.83;;
65567;SDS011;52211;50.154;8.682;2023-02-18T03:53:58;0.90;;;0.90;;
65567;SDS011;52211;50.154;8.682;2023-02-18T03:56:29;0.80;;;0.80;;
65567;SDS011;52211;50.154;8.682;2023-02-18T03:58:58;0.90;;;0.90;;
65567;SDS011;52211;50.154;8.682;2023-02-18T04:01:25;0.87;;;0.87;;
65567;SDS011;52211;50.154;8.682;2023-02-18T04:03:55;1.30;;;1.20;;
65567;SDS011;52211;50.154;8.682;2023-02-18T04:06:24;0.83;;;0.83;;
65567;SDS011;52211;50.154;8.682;2023-02-18T04:08:51;0.80;;;0.80;;
65567;SDS011;52211;50.154;8.682;2023-02-18T04:11:18;1.00;;;1.00;;
65567;SDS011;52211;50.154;8.682;2023-02-18T04:13:47;1.30;;;1.20;;
65567;SDS011;52211;50.154;8.682;2023-02-18T04:16:17;0.93;;;0.93;;
65567;SDS011;52211;50.154;8.682;2023-02-18T04:18:48;0.90;;;0.90;;
65567;SDS011;52211;50.154;8.682;2023-02-18T04:21:17;1.00;;;1.00;;
65567;SDS011;52211;50.154;8.682;2023-02-18T04:23:46;1.10;;;1.10;;
65567;SDS011;52211;50.154;8.682;2023-02-18T04:26:13;1.40;;;1.30;;
65567;SDS011;52211;50.154;8.682;2023-02-18T04:28:43;1.97;;;1.20;;
65567;SDS011;52211;50.154;8.682;2023-02-18T04:31:14;1.10;;;1.10;;
65567;SDS011;52211;50.154;8.682;2023-02-18T04:33:42;0.90;;;0.90;;
65567;SDS011;52211;50.154;8.682;2023-02-18T04:36:14;1.03;;;1.00;;
65567;SDS011;52211;50.154;8.682;2023-02-18T04:38:41;1.27;;;1.17;;
65567;SDS011;52211;50.154;8.682;2023-02-18T04:41:08;1.13;;;1.13;;
65567;SDS011;52211;50.154;8.682;2023-02-18T04:43:37;1.30;;;1.27;;
65567;SDS011;52211;50.154;8.682;2023-02-18T04:46:04;1.43;;;1.33;;
65567;SDS011;52211;50.154;8.682;2023-02-18T04:48:32;1.30;;;1.30;;
65567;SDS011;52211;50.154;8.682;2023-02-18T04:51:02;1.83;;;1.17;;
65567;SDS011;52211;50.154;8.682;2023-02-18T04:53:35;1.20;;;1.10;;
65567;SDS011;52211;50.154;8.682;2023-02-18T04:56:04;0.80;;;0.80;;
65567;SDS011;52211;50.154;8.682;2023-02-18T04:58:34;1.33;;;1.23;;
65567;SDS011;52211;50.154;8.682;2023-02-18T05:01:04;1.27;;;1.20;;
65567;SDS011;52211;50.154;8.682;2023-02-18T05:03:35;1.27;;;1.17;;
65567;SDS011;52211;50.154;8.682;2023-02-18T05:06:05;1.07;;;1.07;;
65567;SDS011;52211;50.154;8.682;2023-02-18T05:08:35;1.17;;;1.10;;
65567;SDS011;52211;50.154;8.682;2023-02-18T05:11:06;1.00;;;1.00;;
65567;SDS011;52211;50.154;8.682;2023-02-18T05:13:35;1.63;;;1.53;;
65567;SDS011;52211;50.154;8.682;2023-02-18T05:16:04;1.20;;;1.10;;
65567;SDS011;52211;50.154;8.682;2023-02-18T05:18:34;1.10;;;1.10;;
65567;SDS011;52211;50.154;8.682;2023-02-18T05:21:05;1.53;;;1.40;;
65567;SDS011;52211;50.154;8.682;2023-02-18T05:23:34;1.10;;;1.10;;
65567;SDS011;52211;50.154;8.682;2023-02-18T05:26:03;1.83;;;1.30;;
65567;SDS011;52211;50.154;8.682;2023-02-18T05:28:33;1.50;;;1.40;;
65567;SDS011;52211;50.154;8.682;2023-02-18T05:31:02;1.10;;;1.00;;
65567;SDS011;52211;50.154;8.682;2023-02-18T05:33:29;1.60;;;1.50;;
65567;SDS011;52211;50.154;8.682;2023-02-18T05:35:59;1.20;;;1.20;;
65567;SDS011;52211;50.154;8.682;2023-02-18T05:38:28;1.17;;;1.17;;
65567;SDS011;52211;50.154;8.682;2023-02-18T05:40:55;1.43;;;1.33;;
65567;SDS011;52211;50.154;8.682;2023-02-18T05:43:24;1.40;;;1.30;;
65567;SDS011;52211;50.154;8.682;2023-02-18T05:45:54;1.40;;;1.30;;
65567;SDS011;52211;50.154;8.682;2023-02-18T05:48:21;1.50;;;1.27;;
65567;SDS011;52211;50.154;8.682;2023-02-18T05:50:53;1.00;;;1.00;;
65567;SDS011;52211;50.154;8.682;2023-02-18T05:53:22;1.00;;;1.00;;
65567;SDS011;52211;50.154;8.682;2023-02-18T05:55:49;1.10;;;1.10;;
65567;SDS011;52211;50.154;8.682;2023-02-18T05:58:20;1.17;;;1.17;;
65567;SDS011;52211;50.154;8.682;2023-02-18T06:00:50;1.57;;;1.20;;
65567;SDS011;52211;50.154;8.682;2023-02-18T06:03:21;0.80;;;0.80;;
65567;SDS011;52211;50.154;8.682;2023-02-18T06:05:48;1.30;;;1.00;;
65567;SDS011;52211;50.154;8.682;2023-02-18T06:08:19;2.00;;;1.40;;
65567;SDS011;52211;50.154;8.682;2023-02-18T06:10:50;1.27;;;1.10;;
65567;SDS011;52211;50.154;8.682;2023-02-18T06:13:17;1.90;;;1.20;;
65567;SDS011;52211;50.154;8.682;2023-02-18T06:15:48;1.40;;;1.30;;
65567;SDS011;52211;50.154;8.682;2023-02-18T06:18:20;1.27;;;1.27;;
65567;SDS011;52211;50.154;8.682;2023-02-18T06:20:47;2.73;;;1.20;;
65567;SDS011;52211;50.154;8.682;2023-02-18T06:23:17;1.50;;;1.40;;
65567;SDS011;52211;50.154;8.682;2023-02-18T06:25:44;3.70;;;1.70;;
65567;SDS011;52211;50.154;8.682;2023-02-18T06:28:19;1.20;;;1.13;;
65567;SDS011;52211;50.154;8.682;2023-02-18T06:30:46;1.60;;;1.50;;
65567;SDS011;52211;50.154;8.682;2023-02-18T06:33:14;1.50;;;1.40;;
65567;SDS011;52211;50.154;8.682;2023-02-18T06:35:41;1.33;;;1.30;;
65567;SDS011;52211;50.154;8.682;2023-02-18T06:38:27;1.30;;;1.20;;
65567;SDS011;52211;50.154;8.682;2023-02-18T06:40:57;1.50;;;1.40;;
65567;SDS011;52211;50.154;8.682;2023-02-18T06:43:24;1.30;;;1.20;;
65567;SDS011;52211;50.154;8.682;2023-02-18T06:45:53;1.40;;;1.30;;
65567;SDS011;52211;50.154;8.682;2023-02-18T06:48:25;1.80;;;1.70;;
65567;SDS011;52211;50.154;8.682;2023-02-18T06:50:55;1.47;;;1.37;;
65567;SDS011;52211;50.154;8.682;2023-02-18T06:53:24;2.03;;;1.70;;
65567;SDS011;52211;50.154;8.682;2023-02-18T06:55:54;1.60;;;1.50;;
65567;SDS011;52211;50.154;8.682;2023-02-18T06:58:25;2.20;;;1.57;;
65567;SDS011;52211;50.154;8.682;2023-02-18T07:00:55;1.30;;;1.30;;
65567;SDS011;52211;50.154;8.682;2023-02-18T07:03:24;1.63;;;1.53;;
65567;SDS011;52211;50.154;8.682;2023-02-18T07:05:55;1.70;;;1.60;;
65567;SDS011;52211;50.154;8.682;2023-02-18T07:08:25;1.60;;;1.50;;
65567;SDS011;52211;50.154;8.682;2023-02-18T07:10:55;1.63;;;1.53;;
65567;SDS011;52211;50.154;8.682;2023-02-18T07:13:27;1.73;;;1.63;;
65567;SDS011;52211;50.154;8.682;2023-02-18T07:15:56;1.70;;;1.60;;
65567;SDS011;52211;50.154;8.682;2023-02-18T07:18:25;2.10;;;1.90;;
65567;SDS011;52211;50.154;8.682;2023-02-18T07:20:57;3.83;;;2.20;;
65567;SDS011;52211;50.154;8.682;2023-02-18T07:23:24;2.37;;;2.17;;
65567;SDS011;52211;50.154;8.682;2023-02-18T07:25:51;2.13;;;1.93;;
65567;SDS011;52211;50.154;8.682;2023-02-18T07:28:18;2.93;;;1.97;;
65567;SDS011;52211;50.154;8.682;2023-02-18T07:30:45;3.00;;;2.40;;
65567;SDS011;52211;50.154;8.682;2023-02-18T07:33:12;2.03;;;1.93;;
65567;SDS011;52211;50.154;8.682;2023-02-18T07:35:41;1.80;;;1.70;;
65567;SDS011;52211;50.154;8.682;2023-02-18T07:38:13;1.70;;;1.60;;
65567;SDS011;52211;50.154;8.682;2023-02-18T07:40:40;2.00;;;1.90;;
65567;SDS011;52211;50.154;8.682;2023-02-18T07:43:12;1.90;;;1.80;;
65567;SDS011;52211;50.154;8.682;2023-02-18T07:45:44;2.13;;;2.03;;
65567;SDS011;52211;50.154;8.682;2023-02-18T07:48:16;1.50;;;1.40;;
65567;SDS011;52211;50.154;8.682;2023-02-18T07:50:45;2.07;;;1.40;;
65567;SDS011;52211;50.154;8.682;2023-02-18T07:53:16;1.20;;;1.20;;
65567;SDS011;52211;50.154;8.682;2023-02-18T07:55:45;1.37;;;1.27;;
65567;SDS011;52211;50.154;8.682;2023-02-18T07:58:18;1.07;;;1.07;;
65567;SDS011;52211;50.154;8.682;2023-02-18T08:00:53;1.83;;;1.30;;
65567;SDS011;52211;50.154;8.682;2023-02-18T08:03:28;1.40;;;1.23;;
65567;SDS011;52211;50.154;8.682;2023-02-18T08:05:57;1.40;;;1.30;;
65567;SDS011;52211;50.154;8.682;2023-02-18T08:08:28;1.33;;;1.23;;
65567;SDS011;52211;50.154;8.682;2023-02-18T08:11:02;2.13;;;1.50;;
65567;SDS011;52211;50.154;8.682;2023-02-18T08:13:44;1.87;;;1.50;;
65567;SDS011;52211;50.154;8.682;2023-02-18T08:16:15;1.87;;;1.60;;
65567;SDS011;52211;50.154;8.682;2023-02-18T08:18:46;1.50;;;1.40;;
65567;SDS011;52211;50.154;8.682;2023-02-18T08:21:17;2.07;;;1.80;;
65567;SDS011;52211;50.154;8.682;2023-02-18T08:23:51;2.23;;;1.80;;
65567;SDS011;52211;50.154;8.682;2023-02-18T08:26:20;1.97;;;1.87;;
65567;SDS011;52211;50.154;8.682;2023-02-18T08:28:49;2.00;;;1.90;;
65567;SDS011;52211;50.154;8.682;2023-02-18T08:31:21;2.83;;;2.63;;
65567;SDS011;52211;50.154;8.682;2023-02-18T08:33:54;3.27;;;2.17;;
65567;SDS011;52211;50.154;8.682;2023-02-18T08:36:24;3.57;;;2.17;;
65567;SDS011;52211;50.154;8.682;2023-02-18T08:38:53;1.93;;;1.80;;
65567;SDS011;52211;50.154;8.682;2023-02-18T08:41:25;3.10;;;2.20;;
65567;SDS011;52211;50.154;8.682;2023-02-18T08:43:54;2.27;;;2.07;;
65567;SDS011;52211;50.154;8.682;2023-02-18T08:46:23;3.00;;;2.67;;
65567;SDS011;52211;50.154;8.682;2023-02-18T08:49:01;2.40;;;1.87;;
65567;SDS011;52211;50.154;8.682;2023-02-18T08:51:30;1.73;;;1.63;;
65567;SDS011;52211;50.154;8.682;2023-02-18T08:54:00;2.53;;;1.67;;
65567;SDS011;52211;50.154;8.682;2023-02-18T08:56:30;2.47;;;2.00;;
65567;SDS011;52211;50.154;8.682;2023-02-18T08:59:01;2.53;;;1.70;;
65567;SDS011;52211;50.154;8.682;2023-02-18T09:01:33;2.07;;;1.97;;
65567;SDS011;52211;50.154;8.682;2023-02-18T09:04:00;2.20;;;2.07;;
65567;SDS011;52211;50.154;8.682;2023-02-18T09:06:27;2.20;;;2.00;;
65567;SDS011;52211;50.154;8.682;2023-02-18T09:08:54;1.90;;;1.80;;
65567;SDS011;52211;50.154;8.682;2023-02-18T09:11:25;2.13;;;1.80;;
65567;SDS011;52211;50.154;8.682;2023-02-18T09:13:55;2.10;;;2.00;;
65567;SDS011;52211;50.154;8.682;2023-02-18T09:16:24;2.47;;;2.27;;
65567;SDS011;52211;50.154;8.682;2023-02-18T09:18:55;2.73;;;2.37;;
65567;SDS011;52211;50.154;8.682;2023-02-18T09:21:25;2.87;;;2.17;;
65567;SDS011;52211;50.154;8.682;2023-02-18T09:23:55;1.90;;;1.77;;
65567;SDS011;52211;50.154;8.682;2023-02-18T09:26:24;2.80;;;1.90;;
65567;SDS011;52211;50.154;8.682;2023-02-18T09:28:53;1.60;;;1.50;;
65567;SDS011;52211;50.154;8.682;2023-02-18T09:31:25;2.20;;;2.00;;
65567;SDS011;52211;50.154;8.682;2023-02-18T09:33:59;1.67;;;1.37;;
65567;SDS011;52211;50.154;8.682;2023-02-18T09:36:28;2.23;;;1.53;;
65567;SDS011;52211;50.154;8.682;2023-02-18T09:38:55;1.53;;;1.43;;
65567;SDS011;52211;50.154;8.682;2023-02-18T09:44:15;1.63;;;1.53;;
65567;SDS011;52211;50.154;8.682;2023-02-18T09:50:03;1.60;;;1.50;;
65567;SDS011;52211;50.154;8.682;2023-02-18T09:52:39;1.57;;;1.47;;
65567;SDS011;52211;50.154;8.682;2023-02-18T09:58:10;1.93;;;1.73;;
65567;SDS011;52211;50.154;8.682;2023-02-18T10:00:51;2.07;;;1.67;;
65567;SDS011;52211;50.154;8.682;2023-02-18T10:03:38;1.70;;;1.60;;
65567;SDS011;52211;50.154;8.682;2023-02-18T10:06:24;1.83;;;1.47;;
65567;SDS011;52211;50.154;8.682;2023-02-18T10:09:03;1.37;;;1.33;;
65567;SDS011;52211;50.154;8.682;2023-02-18T10:11:56;1.47;;;1.37;;
65567;SDS011;52211;50.154;8.682;2023-02-18T10:14:39;1.70;;;1.40;;
65567;SDS011;52211;50.154;8.682;2023-02-18T10:17:09;1.40;;;1.30;;
65567;SDS011;52211;50.154;8.682;2023-02-18T10:19:48;1.20;;;1.10;;
65567;SDS011;52211;50.154;8.682;2023-02-18T10:22:18;1.20;;;1.10;;
65567;SDS011;52211;50.154;8.682;2023-02-18T10:24:54;1.57;;;1.10;;
65567;SDS011;52211;50.154;8.682;2023-02-18T10:27:29;1.57;;;1.17;;
65567;SDS011;52211;50.154;8.682;2023-02-18T10:30:16;1.20;;;0.90;;
65567;SDS011;52211;50.154;8.682;2023-02-18T10:33:21;1.10;;;1.10;;
65567;SDS011;52211;50.154;8.682;2023-02-18T10:36:03;1.07;;;1.03;;
65567;SDS011;52211;50.154;8.682;2023-02-18T10:44:44;1.97;;;0.93;;
65567;SDS011;52211;50.154;8.682;2023-02-18T10:50:17;0.90;;;0.90;;
65567;SDS011;52211;50.154;8.682;2023-02-18T10:53:27;0.80;;;0.80;;
65567;SDS011;52211;50.154;8.682;2023-02-18T10:56:02;1.20;;;0.90;;
65567;SDS011;52211;50.154;8.682;2023-02-18T10:58:36;1.00;;;1.00;;
65567;SDS011;52211;50.154;8.682;2023-02-18T11:01:13;0.70;;;0.70;;
65567;SDS011;52211;50.154;8.682;2023-02-18T11:03:50;0.80;;;0.80;;
65567;SDS011;52211;50.154;8.682;2023-02-18T11:06:41;0.70;;;0.70;;
65567;SDS011;52211;50.154;8.682;2023-02-18T11:17:42;0.67;;;0.67;;
65567;SDS011;52211;50.154;8.682;2023-02-18T11:25:32;1.13;;;1.00;;
65567;SDS011;52211;50.154;8.682;2023-02-18T11:28:04;0.70;;;0.70;;
65567;SDS011;52211;50.154;8.682;2023-02-18T11:31:08;1.17;;;1.07;;
65567;SDS011;52211;50.154;8.682;2023-02-18T11:33:48;1.73;;;0.90;;
65567;SDS011;52211;50.154;8.682;2023-02-18T11:36:30;2.03;;;0.80;;
65567;SDS011;52211;50.154;8.682;2023-02-18T11:39:06;0.93;;;0.87;;
65567;SDS011;52211;50.154;8.682;2023-02-18T11:44:36;1.00;;;0.97;;
65567;SDS011;52211;50.154;8.682;2023-02-18T11:49:38;1.03;;;1.00;;
65567;SDS011;52211;50.154;8.682;2023-02-18T11:52:23;2.40;;;1.10;;
65567;SDS011;52211;50.154;8.682;2023-02-18T11:55:19;2.83;;;1.23;;
65567;SDS011;52211;50.154;8.682;2023-02-18T11:57:59;1.03;;;0.93;;
65567;SDS011;52211;50.154;8.682;2023-02-18T12:06:14;1.90;;;1.43;;
65567;SDS011;52211;50.154;8.682;2023-02-18T12:08:52;1.00;;;1.00;;
65567;SDS011;52211;50.154;8.682;2023-02-18T12:11:50;1.60;;;1.10;;
65567;SDS011;52211;50.154;8.682;2023-02-18T12:14:25;2.97;;;1.00;;
65567;SDS011;52211;50.154;8.682;2023-02-18T12:16:56;1.30;;;1.20;;
65567;SDS011;52211;50.154;8.682;2023-02-18T12:23:13;1.07;;;0.90;;
65567;SDS011;52211;50.154;8.682;2023-02-18T12:28:39;0.87;;;0.87;;
65567;SDS011;52211;50.154;8.682;2023-02-18T12:35:00;1.03;;;1.03;;
65567;SDS011;52211;50.154;8.682;2023-02-18T12:52:33;1.40;;;1.30;;
65567;SDS011;52211;50.154;8.682;2023-02-18T13:01:19;1.30;;;1.27;;
65567;SDS011;52211;50.154;8.682;2023-02-18T13:04:21;1.67;;;1.17;;
65567;SDS011;52211;50.154;8.682;2023-02-18T13:18:22;1.40;;;1.30;;
65567;SDS011;52211;50.154;8.682;2023-02-18T13:21:00;1.00;;;0.97;;
65567;SDS011;52211;50.154;8.682;2023-02-18T13:26:28;1.40;;;1.30;;
65567;SDS011;52211;50.154;8.682;2023-02-18T13:38:58;1.50;;;1.13;;
65567;SDS011;52211;50.154;8.682;2023-02-18T13:41:37;1.03;;;1.00;;
65567;SDS011;52211;50.154;8.682;2023-02-18T13:49:25;2.17;;;1.47;;
65567;SDS011;52211;50.154;8.682;2023-02-18T13:52:14;2.33;;;1.40;;
65567;SDS011;52211;50.154;8.682;2023-02-18T13:54:45;2.17;;;1.60;;
65567;SDS011;52211;50.154;8.682;2023-02-18T13:57:20;1.73;;;1.60;;
65567;SDS011;52211;50.154;8.682;2023-02-18T13:59:56;1.30;;;1.20;;
65567;SDS011;52211;50.154;8.682;2023-02-18T14:02:31;1.83;;;1.73;;
65567;SDS011;52211;50.154;8.682;2023-02-18T14:20:45;1.63;;;1.40;;
65567;SDS011;52211;50.154;8.682;2023-02-18T14:26:06;2.50;;;1.50;;
65567;SDS011;52211;50.154;8.682;2023-02-18T14:31:20;2.23;;;1.33;;
65567;SDS011;52211;50.154;8.682;2023-02-18T14:40:36;1.53;;;1.43;;
65567;SDS011;52211;50.154;8.682;2023-02-18T14:43:24;1.33;;;1.20;;
65567;SDS011;52211;50.154;8.682;2023-02-18T14:46:31;1.10;;;1.10;;
65567;SDS011;52211;50.154;8.682;2023-02-18T14:52:11;1.20;;;1.20;;
65567;SDS011;52211;50.154;8.682;2023-02-18T14:54:54;1.40;;;1.30;;
65567;SDS011;52211;50.154;8.682;2023-02-18T14:57:39;3.03;;;1.37;;
65567;SDS011;52211;50.154;8.682;2023-02-18T15:00:22;1.47;;;1.33;;
65567;SDS011;52211;50.154;8.682;2023-02-18T15:02:57;1.00;;;1.00;;
65567;SDS011;52211;50.154;8.682;2023-02-18T15:05:36;1.57;;;1.10;;
65567;SDS011;52211;50.154;8.682;2023-02-18T15:08:05;2.30;;;1.57;;
65567;SDS011;52211;50.154;8.682;2023-02-18T15:16:07;1.37;;;1.27;;
65567;SDS011;52211;50.154;8.682;2023-02-18T15:18:42;1.80;;;1.70;;
65567;SDS011;52211;50.154;8.682;2023-02-18T15:21:28;1.30;;;1.20;;
65567;SDS011;52211;50.154;8.682;2023-02-18T15:27:12;1.40;;;1.30;;
65567;SDS011;52211;50.154;8.682;2023-02-18T15:29:50;1.43;;;1.33;;
65567;SDS011;52211;50.154;8.682;2023-02-18T15:32:43;1.50;;;1.10;;
65567;SDS011;52211;50.154;8.682;2023-02-18T15:35:19;2.07;;;1.03;;
65567;SDS011;52211;50.154;8.682;2023-02-18T15:37:55;1.50;;;1.40;;
65567;SDS011;52211;50.154;8.682;2023-02-18T15:40:29;2.00;;;1.10;;
65567;SDS011;52211;50.154;8.682;2023-02-18T15:43:03;2.10;;;1.90;;
65567;SDS011;52211;50.154;8.682;2023-02-18T15:45:38;1.20;;;1.10;;
65567;SDS011;52211;50.154;8.682;2023-02-18T15:48:19;1.40;;;1.30;;
65567;SDS011;52211;50.154;8.682;2023-02-18T15:51:05;1.10;;;1.00;;
65567;SDS011;52211;50.154;8.682;2023-02-18T15:53:44;3.30;;;1.40;;
65567;SDS011;52211;50.154;8.682;2023-02-18T15:56:36;1.30;;;1.20;;
65567;SDS011;52211;50.154;8.682;2023-02-18T16:01:55;2.00;;;1.20;;
65567;SDS011;52211;50.154;8.682;2023-02-18T16:04:36;1.10;;;1.00;;
65567;SDS011;52211;50.154;8.682;2023-02-18T16:07:28;1.10;;;1.10;;
65567;SDS011;52211;50.154;8.682;2023-02-18T16:10:23;0.87;;;0.87;;
65567;SDS011;52211;50.154;8.682;2023-02-18T16:13:10;1.00;;;1.00;;
65567;SDS011;52211;50.154;8.682;2023-02-18T16:15:41;1.77;;;1.67;;
65567;SDS011;52211;50.154;8.682;2023-02-18T16:23:50;0.90;;;0.90;;
65567;SDS011;52211;50.154;8.682;2023-02-18T16:26:40;1.63;;;1.30;;
65567;SDS011;52211;50.154;8.682;2023-02-18T16:29:14;1.10;;;1.00;;
65567;SDS011;52211;50.154;8.682;2023-02-18T16:31:49;0.73;;;0.73;;
65567;SDS011;52211;50.154;8.682;2023-02-18T16:34:16;1.33;;;1.20;;
65567;SDS011;52211;50.154;8.682;2023-02-18T16:36:46;0.90;;;0.90;;
65567;SDS011;52211;50.154;8.682;2023-02-18T16:39:35;1.30;;;1.20;;
65567;SDS011;52211;50.154;8.682;2023-02-18T16:42:02;1.13;;;1.10;;
65567;SDS011;52211;50.154;8.682;2023-02-18T16:44:35;1.20;;;1.10;;
65567;SDS011;52211;50.154;8.682;2023-02-18T16:47:09;4.73;;;1.20;;
65567;SDS011;52211;50.154;8.682;2023-02-18T16:49:43;1.20;;;1.10;;
65567;SDS011;52211;50.154;8.682;2023-02-18T16:52:18;1.03;;;1.03;;
65567;SDS011;52211;50.154;8.682;2023-02-18T16:54:45;1.37;;;1.27;;
65567;SDS011;52211;50.154;8.682;2023-02-18T16:57:20;1.00;;;1.00;;
65567;SDS011;52211;50.154;8.682;2023-02-18T16:59:50;2.03;;;1.73;;
65567;SDS011;52211;50.154;8.682;2023-02-18T17:02:22;1.50;;;1.20;;
65567;SDS011;52211;50.154;8.682;2023-02-18T17:04:49;1.20;;;1.20;;
65567;SDS011;52211;50.154;8.682;2023-02-18T17:07:22;1.83;;;1.13;;
65567;SDS011;52211;50.154;8.682;2023-02-18T17:09:49;1.60;;;1.33;;
65567;SDS011;52211;50.154;8.682;2023-02-18T17:12:16;1.63;;;1.50;;
65567;SDS011;52211;50.154;8.682;2023-02-18T17:14:48;1.97;;;1.53;;
65567;SDS011;52211;50.154;8.682;2023-02-18T17:17:20;1.50;;;1.27;;
65567;SDS011;52211;50.154;8.682;2023-02-18T17:19:51;1.50;;;1.40;;
65567;SDS011;52211;50.154;8.682;2023-02-18T17:22:22;1.27;;;1.20;;
65567;SDS011;52211;50.154;8.682;2023-02-18T17:24:49;2.40;;;1.47;;
65567;SDS011;52211;50.154;8.682;2023-02-18T17:27:18;3.00;;;1.70;;
65567;SDS011;52211;50.154;8.682;2023-02-18T17:29:48;1.30;;;1.20;;
65567;SDS011;52211;50.154;8.682;2023-02-18T17:32:17;1.83;;;1.10;;
65567;SDS011;52211;50.154;8.682;2023-02-18T17:34:44;2.03;;;1.30;;
65567;SDS011;52211;50.154;8.682;2023-02-18T17:37:12;1.57;;;1.47;;
65567;SDS011;52211;50.154;8.682;2023-02-18T17:39:39;1.07;;;1.07;;
65567;SDS011;52211;50.154;8.682;2023-02-18T17:42:10;1.50;;;1.40;;
65567;SDS011;52211;50.154;8.682;2023-02-18T17:44:37;3.40;;;1.30;;
65567;SDS011;52211;50.154;8.682;2023-02-18T17:47:05;1.60;;;1.50;;
65567;SDS011;52211;50.154;8.682;2023-02-18T17:49:34;1.47;;;1.37;;
65567;SDS011;52211;50.154;8.682;2023-02-18T17:52:01;1.50;;;1.50;;
65567;SDS011;52211;50.154;8.682;2023-02-18T17:54:31;1.80;;;1.70;;
65567;SDS011;52211;50.154;8.682;2023-02-18T17:56:58;1.20;;;1.20;;
65567;SDS011;52211;50.154;8.682;2023-02-18T17:59:29;1.87;;;1.77;;
65567;SDS011;52211;50.154;8.682;2023-02-18T18:01:56;1.50;;;1.40;;
65567;SDS011;52211;50.154;8.682;2023-02-18T18:04:28;1.90;;;1.40;;
65567;SDS011;52211;50.154;8.682;2023-02-18T18:06:56;1.70;;;1.57;;
65567;SDS011;52211;50.154;8.682;2023-02-18T18:09:25;1.20;;;1.20;;
65567;SDS011;52211;50.154;8.682;2023-02-18T18:11:52;1.17;;;1.17;;
65567;SDS011;52211;50.154;8.682;2023-02-18T18:14:19;2.00;;;1.90;;
65567;SDS011;52211;50.154;8.682;2023-02-18T18:16:46;1.30;;;1.20;;
65567;SDS011;52211;50.154;8.682;2023-02-18T18:19:13;1.67;;;1.57;;
65567;SDS011;52211;50.154;8.682;2023-02-18T18:21:39;1.93;;;1.40;;
65567;SDS011;52211;50.154;8.682;2023-02-18T18:24:10;1.43;;;1.40;;
65567;SDS011;52211;50.154;8.682;2023-02-18T18:26:38;1.80;;;1.30;;
65567;SDS011;52211;50.154;8.682;2023-02-18T18:29:07;1.60;;;1.50;;
65567;SDS011;52211;50.154;8.682;2023-02-18T18:31:34;1.77;;;1.67;;
65567;SDS011;52211;50.154;8.682;2023-02-18T18:34:03;1.63;;;1.53;;
65567;SDS011;52211;50.154;8.682;2023-02-18T18:36:30;1.87;;;1.77;;
65567;SDS011;52211;50.154;8.682;2023-02-18T18:38:57;1.70;;;1.60;;
65567;SDS011;52211;50.154;8.682;2023-02-18T18:41:24;1.90;;;1.80;;
65567;SDS011;52211;50.154;8.682;2023-02-18T18:43:51;1.63;;;1.53;;